sensor_id;sensor_type;location;lat;lon;timestamp;P1;durP1;ratioP1;P2;durP2;ratioP2
12005;SDS011;6062;47.294;12.182;2023-05-20T00:00:07;5.13;;;1.20;;
12005;SDS011;6062;47.294;12.182;2023-05-20T00:02:35;1.00;;;0.90;;
12005;SDS011;6062;47.294;12.182;2023-05-20T00:05:01;1.15;;;1.00;;
12005;SDS011;6062;47.294;12.182;2023-05-20T00:07:27;1.27;;;1.10;;
12005;SDS011;6062;47.294;12.182;2023-05-20T00:09:52;0.90;;;0.80;;
12005;SDS011;6062;47.294;12.182;2023-05-20T00:12:18;1.55;;;1.00;;
12005;SDS011;6062;47.294;12.182;2023-05-20T00:14:44;1.00;;;0.90;;
12005;SDS011;6062;47.294;12.182;2023-05-20T00:17:09;1.00;;;0.90;;
12005;SDS011;6062;47.294;12.182;2023-05-20T00:19:35;1.08;;;0.90;;
12005;SDS011;6062;47.294;12.182;2023-05-20T00:22:01;0.95;;;0.80;;
12005;SDS011;6062;47.294;12.182;2023-05-20T00:24:27;1.25;;;0.80;;
12005;SDS011;6062;47.294;12.182;2023-05-20T00:26:52;0.90;;;0.70;;
12005;SDS011;6062;47.294;12.182;2023-05-20T00:29:21;1.17;;;0.80;;
12005;SDS011;6062;47.294;12.182;2023-05-20T00:31:47;1.00;;;0.90;;
12005;SDS011;6062;47.294;12.182;2023-05-20T00:34:12;0.82;;;0.75;;
12005;SDS011;6062;47.294;12.182;2023-05-20T00:36:38;1.10;;;0.90;;
12005;SDS011;6062;47.294;12.182;2023-05-20T00:39:04;1.20;;;1.10;;
12005;SDS011;6062;47.294;12.182;2023-05-20T00:41:30;1.10;;;1.00;;
12005;SDS011;6062;47.294;12.182;2023-05-20T00:43:56;1.42;;;0.93;;
12005;SDS011;6062;47.294;12.182;2023-05-20T00:46:22;1.23;;;1.13;;
12005;SDS011;6062;47.294;12.182;2023-05-20T00:48:50;1.10;;;1.00;;
12005;SDS011;6062;47.294;12.182;2023-05-20T00:51:17;0.90;;;0.90;;
12005;SDS011;6062;47.294;12.182;2023-05-20T00:53:44;1.20;;;1.00;;
12005;SDS011;6062;47.294;12.182;2023-05-20T00:56:10;0.80;;;0.80;;
12005;SDS011;6062;47.294;12.182;2023-05-20T00:58:37;0.80;;;0.80;;
12005;SDS011;6062;47.294;12.182;2023-05-20T01:01:03;0.70;;;0.70;;
12005;SDS011;6062;47.294;12.182;2023-05-20T01:03:30;0.70;;;0.70;;
12005;SDS011;6062;47.294;12.182;2023-05-20T01:05:56;1.02;;;0.93;;
12005;SDS011;6062;47.294;12.182;2023-05-20T01:08:22;0.88;;;0.80;;
12005;SDS011;6062;47.294;12.182;2023-05-20T01:13:45;2.30;;;0.90;;
12005;SDS011;6062;47.294;12.182;2023-05-20T01:16:18;0.98;;;0.82;;
12005;SDS011;6062;47.294;12.182;2023-05-20T01:18:48;1.20;;;0.77;;
12005;SDS011;6062;47.294;12.182;2023-05-20T01:21:19;0.95;;;0.88;;
12005;SDS011;6062;47.294;12.182;2023-05-20T01:23:46;1.02;;;0.80;;
12005;SDS011;6062;47.294;12.182;2023-05-20T01:26:12;1.08;;;0.98;;
12005;SDS011;6062;47.294;12.182;2023-05-20T01:28:38;0.70;;;0.70;;
12005;SDS011;6062;47.294;12.182;2023-05-20T01:31:10;0.80;;;0.80;;
12005;SDS011;6062;47.294;12.182;2023-05-20T01:33:50;0.90;;;0.80;;
12005;SDS011;6062;47.294;12.182;2023-05-20T01:36:20;0.70;;;0.70;;
12005;SDS011;6062;47.294;12.182;2023-05-20T01:38:47;0.70;;;0.70;;
12005;SDS011;6062;47.294;12.182;2023-05-20T01:41:14;1.15;;;0.77;;
12005;SDS011;6062;47.294;12.182;2023-05-20T01:43:41;0.68;;;0.68;;
12005;SDS011;6062;47.294;12.182;2023-05-20T01:46:08;0.70;;;0.70;;
12005;SDS011;6062;47.294;12.182;2023-05-20T01:48:34;1.00;;;0.80;;
12005;SDS011;6062;47.294;12.182;2023-05-20T01:50:59;0.80;;;0.80;;
12005;SDS011;6062;47.294;12.182;2023-05-20T01:53:25;0.80;;;0.80;;
12005;SDS011;6062;47.294;12.182;2023-05-20T01:55:51;0.60;;;0.60;;
12005;SDS011;6062;47.294;12.182;2023-05-20T01:58:17;1.13;;;0.90;;
12005;SDS011;6062;47.294;12.182;2023-05-20T02:00:43;0.93;;;0.73;;
12005;SDS011;6062;47.294;12.182;2023-05-20T02:03:08;0.70;;;0.70;;
12005;SDS011;6062;47.294;12.182;2023-05-20T02:05:35;0.70;;;0.70;;
12005;SDS011;6062;47.294;12.182;2023-05-20T02:08:00;0.50;;;0.50;;
12005;SDS011;6062;47.294;12.182;2023-05-20T02:10:26;1.13;;;0.70;;
12005;SDS011;6062;47.294;12.182;2023-05-20T02:12:52;1.00;;;0.77;;
12005;SDS011;6062;47.294;12.182;2023-05-20T02:15:17;0.77;;;0.77;;
12005;SDS011;6062;47.294;12.182;2023-05-20T02:17:43;1.42;;;0.88;;
12005;SDS011;6062;47.294;12.182;2023-05-20T02:20:11;0.80;;;0.80;;
12005;SDS011;6062;47.294;12.182;2023-05-20T02:22:37;0.70;;;0.70;;
12005;SDS011;6062;47.294;12.182;2023-05-20T02:25:03;0.70;;;0.70;;
12005;SDS011;6062;47.294;12.182;2023-05-20T02:27:30;0.75;;;0.73;;
12005;SDS011;6062;47.294;12.182;2023-05-20T02:29:56;0.65;;;0.65;;
12005;SDS011;6062;47.294;12.182;2023-05-20T02:32:21;0.93;;;0.73;;
12005;SDS011;6062;47.294;12.182;2023-05-20T02:34:52;0.60;;;0.60;;
12005;SDS011;6062;47.294;12.182;2023-05-20T02:37:19;0.70;;;0.70;;
12005;SDS011;6062;47.294;12.182;2023-05-20T02:39:45;0.70;;;0.70;;
12005;SDS011;6062;47.294;12.182;2023-05-20T02:42:11;0.70;;;0.70;;
12005;SDS011;6062;47.294;12.182;2023-05-20T02:44:36;0.80;;;0.70;;
12005;SDS011;6062;47.294;12.182;2023-05-20T02:47:02;0.85;;;0.85;;
12005;SDS011;6062;47.294;12.182;2023-05-20T02:49:28;0.68;;;0.60;;
12005;SDS011;6062;47.294;12.182;2023-05-20T02:51:54;0.75;;;0.75;;
12005;SDS011;6062;47.294;12.182;2023-05-20T02:54:19;1.00;;;0.90;;
12005;SDS011;6062;47.294;12.182;2023-05-20T02:56:45;0.70;;;0.70;;
12005;SDS011;6062;47.294;12.182;2023-05-20T02:59:11;0.80;;;0.80;;
12005;SDS011;6062;47.294;12.182;2023-05-20T03:01:36;1.17;;;0.70;;
12005;SDS011;6062;47.294;12.182;2023-05-20T03:04:04;0.60;;;0.60;;
12005;SDS011;6062;47.294;12.182;2023-05-20T03:06:30;0.55;;;0.55;;
12005;SDS011;6062;47.294;12.182;2023-05-20T03:08:56;0.70;;;0.70;;
12005;SDS011;6062;47.294;12.182;2023-05-20T03:11:22;0.90;;;0.75;;
12005;SDS011;6062;47.294;12.182;2023-05-20T03:13:48;0.52;;;0.52;;
12005;SDS011;6062;47.294;12.182;2023-05-20T03:16:14;0.60;;;0.60;;
12005;SDS011;6062;47.294;12.182;2023-05-20T03:18:40;0.80;;;0.80;;
12005;SDS011;6062;47.294;12.182;2023-05-20T03:21:06;0.70;;;0.70;;
12005;SDS011;6062;47.294;12.182;2023-05-20T03:23:32;1.00;;;0.68;;
12005;SDS011;6062;47.294;12.182;2023-05-20T03:25:59;0.50;;;0.50;;
12005;SDS011;6062;47.294;12.182;2023-05-20T03:28:25;0.70;;;0.70;;
12005;SDS011;6062;47.294;12.182;2023-05-20T03:30:51;0.93;;;0.60;;
12005;SDS011;6062;47.294;12.182;2023-05-20T03:33:17;0.60;;;0.60;;
12005;SDS011;6062;47.294;12.182;2023-05-20T03:35:42;0.70;;;0.70;;
12005;SDS011;6062;47.294;12.182;2023-05-20T03:38:08;1.00;;;0.80;;
12005;SDS011;6062;47.294;12.182;2023-05-20T03:40:34;0.70;;;0.70;;
12005;SDS011;6062;47.294;12.182;2023-05-20T03:43:00;0.60;;;0.60;;
12005;SDS011;6062;47.294;12.182;2023-05-20T03:45:25;0.60;;;0.60;;
12005;SDS011;6062;47.294;12.182;2023-05-20T03:47:51;0.68;;;0.63;;
12005;SDS011;6062;47.294;12.182;2023-05-20T03:50:17;0.63;;;0.63;;
12005;SDS011;6062;47.294;12.182;2023-05-20T03:52:43;0.65;;;0.65;;
12005;SDS011;6062;47.294;12.182;2023-05-20T03:55:08;0.60;;;0.60;;
12005;SDS011;6062;47.294;12.182;2023-05-20T03:57:34;0.60;;;0.60;;
12005;SDS011;6062;47.294;12.182;2023-05-20T04:00:00;0.70;;;0.70;;
12005;SDS011;6062;47.294;12.182;2023-05-20T04:02:32;0.50;;;0.50;;
12005;SDS011;6062;47.294;12.182;2023-05-20T04:04:58;0.65;;;0.60;;
12005;SDS011;6062;47.294;12.182;2023-05-20T04:07:26;0.77;;;0.70;;
12005;SDS011;6062;47.294;12.182;2023-05-20T04:09:53;0.63;;;0.63;;
12005;SDS011;6062;47.294;12.182;2023-05-20T04:12:19;0.63;;;0.60;;
12005;SDS011;6062;47.294;12.182;2023-05-20T04:14:45;0.68;;;0.68;;
12005;SDS011;6062;47.294;12.182;2023-05-20T04:17:13;0.65;;;0.60;;
12005;SDS011;6062;47.294;12.182;2023-05-20T04:19:39;0.70;;;0.70;;
12005;SDS011;6062;47.294;12.182;2023-05-20T04:22:05;0.85;;;0.70;;
12005;SDS011;6062;47.294;12.182;2023-05-20T04:24:31;0.55;;;0.55;;
12005;SDS011;6062;47.294;12.182;2023-05-20T04:26:56;0.82;;;0.63;;
12005;SDS011;6062;47.294;12.182;2023-05-20T04:29:22;0.57;;;0.50;;
12005;SDS011;6062;47.294;12.182;2023-05-20T04:31:48;1.08;;;0.65;;
12005;SDS011;6062;47.294;12.182;2023-05-20T04:34:13;0.65;;;0.65;;
12005;SDS011;6062;47.294;12.182;2023-05-20T04:36:43;0.60;;;0.60;;
12005;SDS011;6062;47.294;12.182;2023-05-20T04:39:09;0.90;;;0.80;;
12005;SDS011;6062;47.294;12.182;2023-05-20T04:41:35;0.75;;;0.75;;
12005;SDS011;6062;47.294;12.182;2023-05-20T04:44:01;1.73;;;0.80;;
12005;SDS011;6062;47.294;12.182;2023-05-20T04:46:27;0.93;;;0.82;;
12005;SDS011;6062;47.294;12.182;2023-05-20T04:48:53;1.00;;;0.90;;
12005;SDS011;6062;47.294;12.182;2023-05-20T04:51:19;3.05;;;0.93;;
12005;SDS011;6062;47.294;12.182;2023-05-20T04:53:45;1.20;;;1.00;;
12005;SDS011;6062;47.294;12.182;2023-05-20T04:56:11;1.13;;;1.00;;
12005;SDS011;6062;47.294;12.182;2023-05-20T04:58:37;1.10;;;1.00;;
12005;SDS011;6062;47.294;12.182;2023-05-20T05:01:03;1.00;;;0.90;;
12005;SDS011;6062;47.294;12.182;2023-05-20T05:03:29;0.80;;;0.80;;
12005;SDS011;6062;47.294;12.182;2023-05-20T05:05:56;0.70;;;0.70;;
12005;SDS011;6062;47.294;12.182;2023-05-20T05:08:22;1.13;;;0.90;;
12005;SDS011;6062;47.294;12.182;2023-05-20T05:10:50;0.80;;;0.70;;
12005;SDS011;6062;47.294;12.182;2023-05-20T05:13:16;0.60;;;0.60;;
12005;SDS011;6062;47.294;12.182;2023-05-20T05:15:42;1.13;;;0.90;;
12005;SDS011;6062;47.294;12.182;2023-05-20T05:18:08;0.80;;;0.60;;
12005;SDS011;6062;47.294;12.182;2023-05-20T05:20:34;0.63;;;0.63;;
12005;SDS011;6062;47.294;12.182;2023-05-20T05:22:59;0.90;;;0.47;;
12005;SDS011;6062;47.294;12.182;2023-05-20T05:25:25;1.40;;;0.90;;
12005;SDS011;6062;47.294;12.182;2023-05-20T05:27:51;0.70;;;0.70;;
12005;SDS011;6062;47.294;12.182;2023-05-20T05:30:19;0.70;;;0.70;;
12005;SDS011;6062;47.294;12.182;2023-05-20T05:32:46;0.68;;;0.60;;
12005;SDS011;6062;47.294;12.182;2023-05-20T05:35:12;1.95;;;0.70;;
12005;SDS011;6062;47.294;12.182;2023-05-20T05:37:37;0.63;;;0.63;;
12005;SDS011;6062;47.294;12.182;2023-05-20T05:40:03;0.63;;;0.63;;
12005;SDS011;6062;47.294;12.182;2023-05-20T05:42:31;0.90;;;0.80;;
12005;SDS011;6062;47.294;12.182;2023-05-20T05:44:57;2.10;;;0.90;;
12005;SDS011;6062;47.294;12.182;2023-05-20T05:47:23;1.33;;;0.80;;
12005;SDS011;6062;47.294;12.182;2023-05-20T05:49:53;0.88;;;0.77;;
12005;SDS011;6062;47.294;12.182;2023-05-20T05:52:19;1.52;;;0.95;;
12005;SDS011;6062;47.294;12.182;2023-05-20T05:54:45;1.05;;;0.63;;
12005;SDS011;6062;47.294;12.182;2023-05-20T05:57:11;0.93;;;0.80;;
12005;SDS011;6062;47.294;12.182;2023-05-20T05:59:37;1.27;;;0.93;;
12005;SDS011;6062;47.294;12.182;2023-05-20T06:02:03;1.23;;;0.70;;
12005;SDS011;6062;47.294;12.182;2023-05-20T06:04:28;0.90;;;0.90;;
12005;SDS011;6062;47.294;12.182;2023-05-20T06:06:54;1.05;;;0.90;;
12005;SDS011;6062;47.294;12.182;2023-05-20T06:09:20;0.77;;;0.77;;
12005;SDS011;6062;47.294;12.182;2023-05-20T06:11:45;0.70;;;0.70;;
12005;SDS011;6062;47.294;12.182;2023-05-20T06:14:11;1.25;;;1.00;;
12005;SDS011;6062;47.294;12.182;2023-05-20T06:16:37;0.82;;;0.80;;
12005;SDS011;6062;47.294;12.182;2023-05-20T06:19:03;2.35;;;0.60;;
12005;SDS011;6062;47.294;12.182;2023-05-20T06:21:29;0.80;;;0.80;;
12005;SDS011;6062;47.294;12.182;2023-05-20T06:23:56;1.20;;;1.00;;
12005;SDS011;6062;47.294;12.182;2023-05-20T06:26:22;0.93;;;0.82;;
12005;SDS011;6062;47.294;12.182;2023-05-20T06:28:47;1.20;;;1.00;;
12005;SDS011;6062;47.294;12.182;2023-05-20T06:31:13;1.20;;;0.70;;
12005;SDS011;6062;47.294;12.182;2023-05-20T06:33:39;1.05;;;0.90;;
12005;SDS011;6062;47.294;12.182;2023-05-20T06:36:05;1.30;;;0.98;;
12005;SDS011;6062;47.294;12.182;2023-05-20T06:38:31;3.33;;;0.80;;
12005;SDS011;6062;47.294;12.182;2023-05-20T06:40:56;0.68;;;0.60;;
12005;SDS011;6062;47.294;12.182;2023-05-20T06:43:22;0.77;;;0.65;;
12005;SDS011;6062;47.294;12.182;2023-05-20T06:45:48;0.88;;;0.70;;
12005;SDS011;6062;47.294;12.182;2023-05-20T06:48:14;2.08;;;0.68;;
12005;SDS011;6062;47.294;12.182;2023-05-20T06:50:40;0.80;;;0.80;;
12005;SDS011;6062;47.294;12.182;2023-05-20T06:53:06;0.90;;;0.90;;
12005;SDS011;6062;47.294;12.182;2023-05-20T06:55:31;2.22;;;1.10;;
12005;SDS011;6062;47.294;12.182;2023-05-20T06:57:57;2.55;;;1.00;;
12005;SDS011;6062;47.294;12.182;2023-05-20T07:00:23;1.55;;;1.17;;
12005;SDS011;6062;47.294;12.182;2023-05-20T07:02:48;1.30;;;1.20;;
12005;SDS011;6062;47.294;12.182;2023-05-20T07:05:14;1.13;;;1.02;;
12005;SDS011;6062;47.294;12.182;2023-05-20T07:07:40;1.48;;;1.10;;
12005;SDS011;6062;47.294;12.182;2023-05-20T07:10:06;1.75;;;1.10;;
12005;SDS011;6062;47.294;12.182;2023-05-20T07:12:32;1.20;;;1.10;;
12005;SDS011;6062;47.294;12.182;2023-05-20T07:14:58;1.30;;;1.20;;
12005;SDS011;6062;47.294;12.182;2023-05-20T07:17:25;1.35;;;1.00;;
12005;SDS011;6062;47.294;12.182;2023-05-20T07:19:51;1.00;;;0.90;;
12005;SDS011;6062;47.294;12.182;2023-05-20T07:22:17;1.25;;;1.15;;
12005;SDS011;6062;47.294;12.182;2023-05-20T07:24:43;1.20;;;1.10;;
12005;SDS011;6062;47.294;12.182;2023-05-20T07:27:09;2.63;;;1.15;;
12005;SDS011;6062;47.294;12.182;2023-05-20T07:29:35;1.25;;;1.15;;
12005;SDS011;6062;47.294;12.182;2023-05-20T07:32:02;1.30;;;1.20;;
12005;SDS011;6062;47.294;12.182;2023-05-20T07:34:29;2.08;;;1.13;;
12005;SDS011;6062;47.294;12.182;2023-05-20T07:36:55;1.10;;;1.00;;
12005;SDS011;6062;47.294;12.182;2023-05-20T07:39:22;1.30;;;1.08;;
12005;SDS011;6062;47.294;12.182;2023-05-20T07:41:49;1.30;;;1.20;;
12005;SDS011;6062;47.294;12.182;2023-05-20T07:44:15;1.88;;;1.10;;
12005;SDS011;6062;47.294;12.182;2023-05-20T07:46:42;1.52;;;1.23;;
12005;SDS011;6062;47.294;12.182;2023-05-20T07:49:09;1.20;;;1.10;;
12005;SDS011;6062;47.294;12.182;2023-05-20T07:51:35;1.70;;;1.15;;
12005;SDS011;6062;47.294;12.182;2023-05-20T07:54:01;1.95;;;1.15;;
12005;SDS011;6062;47.294;12.182;2023-05-20T07:56:27;1.42;;;1.10;;
12005;SDS011;6062;47.294;12.182;2023-05-20T07:58:54;1.00;;;0.95;;
12005;SDS011;6062;47.294;12.182;2023-05-20T08:01:22;5.20;;;1.27;;
12005;SDS011;6062;47.294;12.182;2023-05-20T08:03:49;1.20;;;1.10;;
12005;SDS011;6062;47.294;12.182;2023-05-20T08:06:16;1.08;;;0.98;;
12005;SDS011;6062;47.294;12.182;2023-05-20T08:08:41;1.38;;;1.27;;
12005;SDS011;6062;47.294;12.182;2023-05-20T08:11:08;1.83;;;1.30;;
12005;SDS011;6062;47.294;12.182;2023-05-20T08:13:34;1.40;;;1.30;;
12005;SDS011;6062;47.294;12.182;2023-05-20T08:16:00;1.77;;;1.33;;
12005;SDS011;6062;47.294;12.182;2023-05-20T08:18:28;1.45;;;1.20;;
12005;SDS011;6062;47.294;12.182;2023-05-20T08:20:54;1.35;;;1.25;;
12005;SDS011;6062;47.294;12.182;2023-05-20T08:23:20;1.33;;;1.23;;
12005;SDS011;6062;47.294;12.182;2023-05-20T08:25:45;1.40;;;1.23;;
12005;SDS011;6062;47.294;12.182;2023-05-20T08:28:12;1.30;;;1.20;;
12005;SDS011;6062;47.294;12.182;2023-05-20T08:30:38;1.38;;;1.20;;
12005;SDS011;6062;47.294;12.182;2023-05-20T08:33:04;1.35;;;1.20;;
12005;SDS011;6062;47.294;12.182;2023-05-20T08:35:30;1.67;;;1.40;;
12005;SDS011;6062;47.294;12.182;2023-05-20T08:37:55;1.45;;;1.20;;
12005;SDS011;6062;47.294;12.182;2023-05-20T08:40:22;1.60;;;1.50;;
12005;SDS011;6062;47.294;12.182;2023-05-20T08:42:48;1.40;;;1.25;;
12005;SDS011;6062;47.294;12.182;2023-05-20T08:45:19;1.20;;;1.10;;
12005;SDS011;6062;47.294;12.182;2023-05-20T08:47:48;1.90;;;1.30;;
12005;SDS011;6062;47.294;12.182;2023-05-20T08:50:14;1.25;;;1.15;;
12005;SDS011;6062;47.294;12.182;2023-05-20T08:52:41;1.95;;;1.30;;
12005;SDS011;6062;47.294;12.182;2023-05-20T08:55:13;1.40;;;1.20;;
12005;SDS011;6062;47.294;12.182;2023-05-20T08:57:50;1.33;;;1.23;;
12005;SDS011;6062;47.294;12.182;2023-05-20T09:00:20;1.75;;;1.10;;
12005;SDS011;6062;47.294;12.182;2023-05-20T09:02:51;1.67;;;1.30;;
12005;SDS011;6062;47.294;12.182;2023-05-20T09:05:17;1.83;;;1.13;;
12005;SDS011;6062;47.294;12.182;2023-05-20T09:07:43;1.30;;;1.20;;
12005;SDS011;6062;47.294;12.182;2023-05-20T09:10:09;1.33;;;1.23;;
12005;SDS011;6062;47.294;12.182;2023-05-20T09:12:35;1.45;;;1.02;;
12005;SDS011;6062;47.294;12.182;2023-05-20T09:15:02;1.40;;;1.17;;
12005;SDS011;6062;47.294;12.182;2023-05-20T09:17:29;1.35;;;1.20;;
12005;SDS011;6062;47.294;12.182;2023-05-20T09:19:55;1.45;;;1.20;;
12005;SDS011;6062;47.294;12.182;2023-05-20T09:22:24;1.23;;;1.13;;
12005;SDS011;6062;47.294;12.182;2023-05-20T09:24:53;1.50;;;0.95;;
12005;SDS011;6062;47.294;12.182;2023-05-20T09:27:19;1.75;;;1.23;;
12005;SDS011;6062;47.294;12.182;2023-05-20T09:29:46;2.13;;;1.58;;
12005;SDS011;6062;47.294;12.182;2023-05-20T09:32:13;1.60;;;1.30;;
12005;SDS011;6062;47.294;12.182;2023-05-20T09:34:39;1.98;;;1.30;;
12005;SDS011;6062;47.294;12.182;2023-05-20T09:37:07;1.33;;;1.20;;
12005;SDS011;6062;47.294;12.182;2023-05-20T09:40:06;1.65;;;1.30;;
12005;SDS011;6062;47.294;12.182;2023-05-20T09:42:34;1.50;;;1.33;;
12005;SDS011;6062;47.294;12.182;2023-05-20T09:45:05;1.48;;;1.10;;
12005;SDS011;6062;47.294;12.182;2023-05-20T09:47:33;1.30;;;1.20;;
12005;SDS011;6062;47.294;12.182;2023-05-20T09:50:07;1.40;;;1.30;;
12005;SDS011;6062;47.294;12.182;2023-05-20T09:52:34;1.23;;;1.13;;
12005;SDS011;6062;47.294;12.182;2023-05-20T09:55:03;1.30;;;1.20;;
12005;SDS011;6062;47.294;12.182;2023-05-20T09:57:32;1.88;;;1.40;;
12005;SDS011;6062;47.294;12.182;2023-05-20T09:59:59;1.92;;;1.40;;
12005;SDS011;6062;47.294;12.182;2023-05-20T10:02:28;1.83;;;1.42;;
12005;SDS011;6062;47.294;12.182;2023-05-20T10:04:55;1.52;;;1.20;;
12005;SDS011;6062;47.294;12.182;2023-05-20T10:15:54;1.77;;;1.52;;
12005;SDS011;6062;47.294;12.182;2023-05-20T10:19:20;1.80;;;1.50;;
12005;SDS011;6062;47.294;12.182;2023-05-20T10:22:00;2.92;;;1.98;;
12005;SDS011;6062;47.294;12.182;2023-05-20T10:24:30;3.85;;;1.85;;
12005;SDS011;6062;47.294;12.182;2023-05-20T10:26:59;3.35;;;1.98;;
12005;SDS011;6062;47.294;12.182;2023-05-20T10:29:27;2.53;;;1.80;;
12005;SDS011;6062;47.294;12.182;2023-05-20T10:31:53;2.13;;;1.75;;
12005;SDS011;6062;47.294;12.182;2023-05-20T10:34:20;2.58;;;1.80;;
12005;SDS011;6062;47.294;12.182;2023-05-20T10:39:23;2.25;;;2.05;;
12005;SDS011;6062;47.294;12.182;2023-05-20T10:44:46;2.95;;;2.22;;
12005;SDS011;6062;47.294;12.182;2023-05-20T10:47:13;3.20;;;2.20;;
12005;SDS011;6062;47.294;12.182;2023-05-20T10:49:40;2.55;;;2.20;;
12005;SDS011;6062;47.294;12.182;2023-05-20T10:52:12;2.78;;;2.17;;
12005;SDS011;6062;47.294;12.182;2023-05-20T10:54:43;3.38;;;2.53;;
12005;SDS011;6062;47.294;12.182;2023-05-20T10:57:20;2.83;;;2.53;;
12005;SDS011;6062;47.294;12.182;2023-05-20T10:59:46;2.80;;;2.35;;
12005;SDS011;6062;47.294;12.182;2023-05-20T11:02:16;2.97;;;2.63;;
12005;SDS011;6062;47.294;12.182;2023-05-20T11:04:43;3.75;;;2.88;;
12005;SDS011;6062;47.294;12.182;2023-05-20T11:07:09;3.88;;;2.45;;
12005;SDS011;6062;47.294;12.182;2023-05-20T11:09:35;4.00;;;2.92;;
12005;SDS011;6062;47.294;12.182;2023-05-20T11:12:01;3.65;;;2.78;;
12005;SDS011;6062;47.294;12.182;2023-05-20T11:14:27;3.80;;;3.05;;
12005;SDS011;6062;47.294;12.182;2023-05-20T11:16:57;3.13;;;2.67;;
12005;SDS011;6062;47.294;12.182;2023-05-20T11:19:24;6.72;;;2.78;;
12005;SDS011;6062;47.294;12.182;2023-05-20T11:21:51;3.05;;;2.38;;
12005;SDS011;6062;47.294;12.182;2023-05-20T11:24:24;3.53;;;2.90;;
12005;SDS011;6062;47.294;12.182;2023-05-20T11:26:52;3.05;;;2.65;;
12005;SDS011;6062;47.294;12.182;2023-05-20T11:29:22;3.22;;;2.80;;
12005;SDS011;6062;47.294;12.182;2023-05-20T11:31:50;5.13;;;2.72;;
12005;SDS011;6062;47.294;12.182;2023-05-20T11:34:20;3.88;;;3.00;;
12005;SDS011;6062;47.294;12.182;2023-05-20T11:36:46;4.78;;;2.92;;
12005;SDS011;6062;47.294;12.182;2023-05-20T11:39:16;4.22;;;3.30;;
12005;SDS011;6062;47.294;12.182;2023-05-20T11:41:41;4.43;;;3.20;;
12005;SDS011;6062;47.294;12.182;2023-05-20T11:44:10;3.78;;;3.38;;
12005;SDS011;6062;47.294;12.182;2023-05-20T11:46:40;4.95;;;2.97;;
12005;SDS011;6062;47.294;12.182;2023-05-20T11:49:07;3.72;;;3.05;;
12005;SDS011;6062;47.294;12.182;2023-05-20T11:51:34;3.22;;;2.80;;
12005;SDS011;6062;47.294;12.182;2023-05-20T11:54:02;4.80;;;2.80;;
12005;SDS011;6062;47.294;12.182;2023-05-20T11:56:32;4.97;;;3.22;;
12005;SDS011;6062;47.294;12.182;2023-05-20T11:59:02;4.90;;;3.05;;
12005;SDS011;6062;47.294;12.182;2023-05-20T12:01:30;3.88;;;3.08;;
12005;SDS011;6062;47.294;12.182;2023-05-20T12:04:04;3.20;;;2.75;;
12005;SDS011;6062;47.294;12.182;2023-05-20T12:06:31;4.90;;;2.92;;
12005;SDS011;6062;47.294;12.182;2023-05-20T12:11:33;3.60;;;3.15;;
12005;SDS011;6062;47.294;12.182;2023-05-20T12:14:00;3.70;;;2.92;;
12005;SDS011;6062;47.294;12.182;2023-05-20T12:16:29;6.13;;;3.15;;
12005;SDS011;6062;47.294;12.182;2023-05-20T12:18:57;5.72;;;3.47;;
12005;SDS011;6062;47.294;12.182;2023-05-20T12:21:23;5.30;;;3.13;;
12005;SDS011;6062;47.294;12.182;2023-05-20T12:23:49;3.65;;;3.22;;
12005;SDS011;6062;47.294;12.182;2023-05-20T12:26:14;6.20;;;3.22;;
12005;SDS011;6062;47.294;12.182;2023-05-20T12:28:40;4.47;;;3.17;;
12005;SDS011;6062;47.294;12.182;2023-05-20T12:31:06;4.65;;;3.33;;
12005;SDS011;6062;47.294;12.182;2023-05-20T12:33:32;4.18;;;3.13;;
12005;SDS011;6062;47.294;12.182;2023-05-20T12:35:57;5.03;;;2.85;;
12005;SDS011;6062;47.294;12.182;2023-05-20T12:38:23;3.35;;;2.80;;
12005;SDS011;6062;47.294;12.182;2023-05-20T12:40:49;3.80;;;2.85;;
12005;SDS011;6062;47.294;12.182;2023-05-20T12:43:15;3.15;;;2.58;;
12005;SDS011;6062;47.294;12.182;2023-05-20T12:45:41;4.82;;;2.70;;
12005;SDS011;6062;47.294;12.182;2023-05-20T12:48:06;4.95;;;2.88;;
12005;SDS011;6062;47.294;12.182;2023-05-20T12:50:32;3.80;;;3.03;;
12005;SDS011;6062;47.294;12.182;2023-05-20T12:52:58;4.25;;;3.13;;
12005;SDS011;6062;47.294;12.182;2023-05-20T12:55:24;4.35;;;3.30;;
12005;SDS011;6062;47.294;12.182;2023-05-20T12:57:49;3.10;;;2.80;;
12005;SDS011;6062;47.294;12.182;2023-05-20T13:00:17;3.40;;;2.88;;
12005;SDS011;6062;47.294;12.182;2023-05-20T13:02:42;3.80;;;3.20;;
12005;SDS011;6062;47.294;12.182;2023-05-20T13:05:08;4.25;;;3.13;;
12005;SDS011;6062;47.294;12.182;2023-05-20T13:07:35;4.60;;;3.00;;
12005;SDS011;6062;47.294;12.182;2023-05-20T13:10:01;4.30;;;3.42;;
12005;SDS011;6062;47.294;12.182;2023-05-20T13:12:27;5.78;;;3.40;;
12005;SDS011;6062;47.294;12.182;2023-05-20T13:14:53;3.53;;;2.95;;
12005;SDS011;6062;47.294;12.182;2023-05-20T13:17:19;3.13;;;2.72;;
12005;SDS011;6062;47.294;12.182;2023-05-20T13:19:45;3.50;;;2.65;;
12005;SDS011;6062;47.294;12.182;2023-05-20T13:22:10;6.35;;;3.40;;
12005;SDS011;6062;47.294;12.182;2023-05-20T13:24:36;4.68;;;3.53;;
12005;SDS011;6062;47.294;12.182;2023-05-20T13:27:02;4.45;;;3.47;;
12005;SDS011;6062;47.294;12.182;2023-05-20T13:29:29;4.65;;;3.72;;
12005;SDS011;6062;47.294;12.182;2023-05-20T13:31:55;6.15;;;3.67;;
12005;SDS011;6062;47.294;12.182;2023-05-20T13:34:21;5.20;;;3.30;;
12005;SDS011;6062;47.294;12.182;2023-05-20T13:36:47;4.35;;;3.28;;
12005;SDS011;6062;47.294;12.182;2023-05-20T13:39:16;4.47;;;3.28;;
12005;SDS011;6062;47.294;12.182;2023-05-20T13:41:41;4.63;;;3.53;;
12005;SDS011;6062;47.294;12.182;2023-05-20T13:44:07;4.00;;;3.53;;
12005;SDS011;6062;47.294;12.182;2023-05-20T13:46:33;4.53;;;3.78;;
12005;SDS011;6062;47.294;12.182;2023-05-20T13:48:59;5.47;;;3.67;;
12005;SDS011;6062;47.294;12.182;2023-05-20T13:51:25;4.85;;;3.70;;
12005;SDS011;6062;47.294;12.182;2023-05-20T13:53:51;7.60;;;3.80;;
12005;SDS011;6062;47.294;12.182;2023-05-20T13:56:17;6.70;;;4.22;;
12005;SDS011;6062;47.294;12.182;2023-05-20T13:58:43;5.53;;;4.15;;
12005;SDS011;6062;47.294;12.182;2023-05-20T14:01:09;5.90;;;4.00;;
12005;SDS011;6062;47.294;12.182;2023-05-20T14:03:36;7.13;;;3.53;;
12005;SDS011;6062;47.294;12.182;2023-05-20T14:06:04;5.13;;;3.72;;
12005;SDS011;6062;47.294;12.182;2023-05-20T14:08:30;7.72;;;4.00;;
12005;SDS011;6062;47.294;12.182;2023-05-20T14:10:56;4.88;;;3.80;;
12005;SDS011;6062;47.294;12.182;2023-05-20T14:13:22;4.25;;;3.85;;
12005;SDS011;6062;47.294;12.182;2023-05-20T14:15:48;5.18;;;3.95;;
12005;SDS011;6062;47.294;12.182;2023-05-20T14:18:16;4.28;;;3.65;;
12005;SDS011;6062;47.294;12.182;2023-05-20T14:20:42;6.50;;;4.05;;
12005;SDS011;6062;47.294;12.182;2023-05-20T14:23:09;5.13;;;3.60;;
12005;SDS011;6062;47.294;12.182;2023-05-20T14:25:35;5.38;;;4.03;;
12005;SDS011;6062;47.294;12.182;2023-05-20T14:28:01;5.13;;;3.83;;
12005;SDS011;6062;47.294;12.182;2023-05-20T14:30:27;5.53;;;4.18;;
12005;SDS011;6062;47.294;12.182;2023-05-20T14:32:52;6.00;;;3.78;;
12005;SDS011;6062;47.294;12.182;2023-05-20T14:35:18;5.60;;;4.25;;
12005;SDS011;6062;47.294;12.182;2023-05-20T14:37:44;5.47;;;3.80;;
12005;SDS011;6062;47.294;12.182;2023-05-20T14:40:10;6.22;;;3.58;;
12005;SDS011;6062;47.294;12.182;2023-05-20T14:42:36;4.63;;;3.55;;
12005;SDS011;6062;47.294;12.182;2023-05-20T14:45:02;5.95;;;3.72;;
12005;SDS011;6062;47.294;12.182;2023-05-20T14:47:29;5.75;;;3.20;;
12005;SDS011;6062;47.294;12.182;2023-05-20T14:49:55;5.47;;;4.18;;
12005;SDS011;6062;47.294;12.182;2023-05-20T14:52:21;6.80;;;4.03;;
12005;SDS011;6062;47.294;12.182;2023-05-20T14:54:47;4.43;;;3.70;;
12005;SDS011;6062;47.294;12.182;2023-05-20T14:57:13;5.97;;;3.40;;
12005;SDS011;6062;47.294;12.182;2023-05-20T14:59:40;4.50;;;3.72;;
12005;SDS011;6062;47.294;12.182;2023-05-20T15:02:06;6.95;;;3.80;;
12005;SDS011;6062;47.294;12.182;2023-05-20T15:04:32;4.35;;;3.25;;